Pinetown, Pennsylvania
Current Conditions -  °F | °C
As of 5:56 AM on Wednesday 26 Nov 2014 (Local Time) from KCXY Reporting Station
Overcast Overcast  
Wind Chill: 42°   Ceiling: 5000
Heat Index: 44°   Visibility: 10mi
Dew Point: 29°   Wind: 5mph
Humidity: 55%   Direction: NA
Pressure: 30.12"   Gusts: NA
Location:  40.1328°N, 76.8833°W
Report Text: KCXY 261056Z AUTO VRB04KT 10SM OVC050 07/M02 A3012 RMK AO2 SLP201 T00671017
Loading
Personal Weather Stations






























Interactive Weather Map New forecast layout! Learn more

10-Day Weather Forecast

Advertisements
Track Severe Weather on mobile